Tinian, MP (96952)

5:26 AM ChST on February 14, 2016 (GMT +1000)
Red Cross-Airport | | Change Station
CLOSE
Current Station
Personal Weather Station
Location: Saipan, MP
Elevation: 215 ft
Nearby Weather Stations

Elev 215 ft 15.13 °N, 145.72 °E | Updated 25 minutes ago

Scattered Clouds
Scattered Clouds
75.6 °F
Feels Like 77 °F
N
14.0
Wind Variable Wind from ENE
Gusts 29.0 mph

Today
High -- | Low -- °F
--% Chance of Precip.
Yesterday
High -- | Low -- °F
Precip. -- in
Pressure 30.04 in
Visibility 10.0 miles
Clouds Scattered Clouds 2400 ft
Heat Index 77 °F
Dew Point 68 °F
Humidity 76%
Rainfall Not available.
Snow Depth Not available.
6:42 AM 6:20 PM
Waxing Crescent, 33% visible
METAR PGSN 131854Z 08017G23KT 10SM SCT024 24/19 A2997 RMK AO2 SLP170 T02430189 $
Pressure 30.04 in
Visibility 10.0 miles
Clouds Scattered Clouds 2400 ft
Heat Index 77 °F
Dew Point 68 °F
Humidity 76%
Rainfall Not available.
Snow Depth Not available.
6:42 AM 6:20 PM
Waxing Crescent, 33% visible
METAR PGSN 131854Z 08017G23KT 10SM SCT024 24/19 A2997 RMK AO2 SLP170 T02430189 $

10-Day Weather Forecast

Almanac

Astronomy

Feb. 14, 2016 Rise Set
Actual Time
Civil Twilight
Nautical Twilight
Astronomical Twilight
Moon
Length of Visible Light
Length of Day
Tomorrow will be .
, % of the Moon is Illuminated

Today's Extremes

State Highs State Lows

Community

WunderPhotos

Upload Photos

1,892,642 photos uploaded!

WunderBlog® & News

Nearby

Air Quality

  Air Quality AQ Index Pollutant
Not available.

Snow Depth

Station Depth Elevation

Earthquake Activity

City Distance Mag. Time & Date
Minimum magnitude displayed is 2.5.

Coastal Water Temperatures

Place Temperature

Stations

Nearby Weather Stations

Station Location Temp. Windchill Dew Point Humidity Wind Precip. Elev Updated Type
                   

Watches & Warnings

There are currently no watches in effect.